Vance Air Force Base
KEND : now visible

Airfield :











YOU CAN JOIN US ON...

 
LOGIN :

Register | Disclaimer

   EN    FR    IT 

 









Legend :    VFR   Marginal VFR   IFR   Intensive IFR   Very Intensive IFR
Visi :
Ceiling :
>= 8 km
>= 3000ft
5 to 8 km
1000 to 3000 ft
1500m to 5 km
500 to 1000 ft
800 to 1500m
200 to 500 ft
< 800m
< 200 ft
Symbols :   Thunderstorms  Fog  Heavy snow  Heavy precipitations  Wind > 20 kt






- Airport Elevation : 1307 ft


KEND - Vance Air Force Base

CURRENT METAR :
  • 200656Z AUTO 18023G30KT 10SM CLR 27/17 A2932 RMK AO2 PK WND 18034/10 SLP913 T02670172

EXPIRED METARs :
  • 200556Z AUTO 18024G34KT 10SM CLR 27/17 A2933 RMK AO2 PK WND 19034/01 SLP916 T02690174 10328 20269 403380174 57013
  • 200456Z AUTO 17025G34KT 10SM CLR 27/18 A2934 RMK AO2 SLP920 T02730177

TAF TAF KEND
Valid from the 20 at 05:00 until the 21 at 08:00 UTC


200542Z 2005/2108 15015G20KT 9999 FEW250 QNH2938INS
BECMG 2004/2005 18020G30KT 9999 SCT250 QNH2934INS
TEMPO 2006/2009 18030G40KT
BECMG 2012/2013 32015G20KT 9999 FEW150 SCT250 QNH2940INS
BECMG 2016/2017 01015KT 9999 SCT250 QNH2950INS
TEMPO 2102/2105 03015G25KT 8000 -TSRA OVC020CB TX28/2021Z TN24/2013Z
KZKC FIR / North America



MET'MAP, your aeronautical weather chart ! - Copyright ORBIFLY December 2007 - Disclaimer

ORBIFLY MET'MAP TEAM :

Programming & Development : Alexandra Zaïnal
Original concept : Baudouin d'Aumeries
Technical & hardware support : Manuel Goepfert
Assistance : Marc-Olivier Méhu

Contact : metmap@orbifly.com




SOURCES & CREDITS :

   NOAA       Earth
Advisory